createdAt,value
2019-05-05T00:02:21.616Z,3.40
2019-05-05T00:04:57.592Z,3.57
2019-05-05T00:07:28.331Z,3.37
2019-05-05T00:09:56.537Z,3.43
2019-05-05T00:12:35.452Z,3.30
2019-05-05T00:15:22.637Z,3.33
2019-05-05T00:17:50.807Z,2.97
2019-05-05T00:20:19.021Z,3.30
2019-05-05T00:22:47.189Z,2.80
2019-05-05T00:25:15.409Z,3.00
2019-05-05T00:27:45.230Z,3.10
2019-05-05T00:30:14.404Z,3.40
2019-05-05T00:32:44.255Z,2.97
2019-05-05T00:35:14.359Z,3.53
2019-05-05T00:37:45.074Z,3.33
2019-05-05T00:40:14.189Z,3.30
2019-05-05T00:42:42.528Z,3.43
2019-05-05T00:45:10.729Z,3.13
2019-05-05T00:47:46.228Z,2.90
2019-05-05T00:50:16.141Z,3.37
2019-05-05T00:52:44.611Z,3.37
2019-05-05T00:55:15.010Z,3.10
2019-05-05T00:57:42.857Z,2.90
2019-05-05T01:00:17.240Z,3.50
2019-05-05T01:02:47.113Z,3.10
2019-05-05T01:05:29.074Z,3.20
2019-05-05T01:07:57.247Z,3.20
2019-05-05T01:10:25.456Z,2.90
2019-05-05T01:12:54.462Z,3.13
2019-05-05T01:17:51.278Z,3.20
2019-05-05T01:20:19.545Z,3.70
2019-05-05T01:22:47.757Z,3.20
2019-05-05T01:25:15.993Z,3.10
2019-05-05T01:27:45.301Z,3.00
2019-05-05T01:30:15.616Z,3.50
2019-05-05T01:32:56.068Z,3.47
2019-05-05T01:35:24.914Z,3.20
2019-05-05T01:37:54.884Z,3.10
2019-05-05T01:40:27.612Z,3.47
2019-05-05T01:42:56.769Z,3.07
2019-05-05T01:45:24.938Z,3.73
2019-05-05T01:47:54.560Z,3.77
2019-05-05T01:50:24.698Z,3.33
2019-05-05T01:52:52.645Z,3.20
2019-05-05T01:55:20.832Z,3.33
2019-05-05T01:57:49.613Z,3.37
2019-05-05T02:00:17.810Z,3.80
2019-05-05T02:02:46.014Z,3.70
2019-05-05T02:05:14.854Z,3.33
2019-05-05T02:07:44.821Z,3.57
2019-05-05T02:10:15.268Z,3.60
2019-05-05T02:12:44.736Z,4.10
2019-05-05T02:15:14.913Z,3.90
2019-05-05T02:17:44.601Z,4.10
2019-05-05T02:20:31.362Z,4.20
2019-05-05T02:22:59.629Z,4.00
2019-05-05T02:25:27.825Z,3.90
2019-05-05T02:27:56.033Z,4.03
2019-05-05T02:30:42.363Z,4.53
2019-05-05T02:33:15.441Z,4.40
2019-05-05T02:35:42.203Z,4.23
2019-05-05T02:38:10.376Z,5.57
2019-05-05T02:40:38.828Z,4.90
2019-05-05T02:43:07.410Z,5.73
2019-05-05T02:45:55.187Z,5.80
2019-05-05T02:48:25.026Z,5.40
2019-05-05T02:51:02.495Z,6.00
2019-05-05T02:53:29.514Z,5.90
2019-05-05T02:56:00.017Z,5.87
2019-05-05T02:58:28.263Z,6.07
2019-05-05T03:01:01.063Z,5.80
2019-05-05T03:08:26.056Z,6.70
2019-05-05T03:13:24.296Z,7.53
2019-05-05T03:15:55.209Z,7.63
2019-05-05T03:18:24.612Z,7.63
2019-05-05T03:21:03.884Z,8.40
2019-05-05T03:23:24.041Z,7.80
2019-05-05T03:35:43.825Z,6.20
2019-05-05T03:38:14.120Z,5.55
2019-05-05T03:40:43.841Z,6.70
2019-05-05T03:43:17.277Z,5.70
2019-05-05T03:48:24.098Z,6.57
2019-05-05T03:50:54.351Z,5.90
2019-05-05T03:53:24.577Z,6.17
2019-05-05T03:55:54.511Z,5.50
2019-05-05T03:58:24.046Z,5.50
2019-05-05T04:01:10.448Z,5.60
2019-05-05T04:03:38.645Z,5.50
2019-05-05T04:06:08.334Z,5.30
2019-05-05T04:08:36.526Z,5.50
2019-05-05T04:11:04.704Z,5.13
2019-05-05T04:13:34.541Z,5.77
2019-05-05T04:16:08.097Z,6.07
2019-05-05T04:18:43.675Z,5.33
2019-05-05T04:21:11.925Z,5.50
2019-05-05T04:23:40.104Z,6.10
2019-05-05T04:26:08.299Z,6.03
2019-05-05T04:28:37.412Z,5.73
2019-05-05T04:31:05.629Z,5.37
2019-05-05T04:33:34.231Z,5.93
2019-05-05T04:36:03.859Z,5.97
2019-05-05T04:38:32.268Z,5.57
2019-05-05T04:41:00.476Z,5.30
2019-05-05T04:43:28.686Z,5.40
2019-05-05T04:45:56.947Z,5.90
2019-05-05T04:48:26.755Z,5.83
2019-05-05T04:51:00.423Z,6.23
2019-05-05T04:53:30.239Z,6.05
2019-05-05T04:55:58.431Z,6.60
2019-05-05T04:58:28.534Z,6.07
2019-05-05T05:00:56.736Z,6.40
2019-05-05T05:03:29.265Z,5.50
2019-05-05T05:05:59.079Z,5.83
2019-05-05T05:08:28.156Z,6.13
2019-05-05T05:10:56.385Z,6.10
2019-05-05T05:13:24.670Z,5.97
2019-05-05T05:15:53.965Z,5.70
2019-05-05T05:18:24.064Z,5.83
2019-05-05T05:20:54.657Z,5.53
2019-05-05T05:23:24.484Z,5.70
2019-05-05T05:25:54.245Z,5.90
2019-05-05T05:28:23.666Z,5.53
2019-05-05T05:30:52.055Z,5.60
2019-05-05T05:33:20.313Z,5.30
2019-05-05T05:35:48.510Z,6.43
2019-05-05T05:38:16.675Z,6.30
2019-05-05T05:40:46.500Z,5.50
2019-05-05T05:43:16.345Z,6.03
2019-05-05T05:46:04.390Z,5.47
2019-05-05T05:48:34.356Z,5.10
2019-05-05T05:51:07.100Z,5.27
2019-05-05T05:53:35.304Z,4.97
2019-05-05T05:56:04.346Z,5.27
2019-05-05T05:58:33.736Z,5.57
2019-05-05T06:01:04.153Z,5.43
2019-05-05T06:03:33.766Z,6.13
2019-05-05T06:06:01.978Z,5.13
2019-05-05T06:08:30.156Z,5.20
2019-05-05T06:10:58.370Z,4.70
2019-05-05T06:13:26.577Z,5.00
2019-05-05T06:18:24.347Z,5.50
2019-05-05T06:20:53.707Z,5.85
2019-05-05T06:40:42.128Z,4.75
2019-05-05T06:43:15.445Z,4.40
2019-05-05T06:45:45.319Z,5.00
2019-05-05T06:48:13.650Z,4.40
2019-05-05T06:50:43.800Z,4.50
2019-05-05T06:53:18.049Z,4.60
2019-05-05T06:55:46.231Z,5.00
2019-05-05T06:58:14.434Z,4.17
2019-05-05T07:00:44.141Z,4.50
2019-05-05T07:05:43.529Z,4.60
2019-05-05T07:08:13.604Z,4.00
2019-05-05T07:10:41.225Z,4.10
2019-05-05T07:13:09.441Z,4.00
2019-05-05T07:15:37.646Z,3.50
2019-05-05T07:18:05.841Z,3.80
2019-05-05T07:20:34.667Z,3.70
2019-05-05T07:28:04.098Z,3.07
2019-05-05T07:30:33.772Z,2.50
2019-05-05T07:33:04.437Z,3.37
2019-05-05T07:35:51.953Z,2.80
2019-05-05T07:38:09.335Z,2.87
2019-05-05T07:40:37.576Z,2.83
2019-05-05T07:43:05.790Z,3.10
2019-05-05T07:45:34.369Z,2.73
2019-05-05T07:48:04.654Z,2.80
2019-05-05T07:50:35.547Z,2.93
2019-05-05T07:53:12.253Z,2.20
2019-05-05T07:55:34.349Z,2.63
2019-05-05T07:58:04.316Z,2.77
2019-05-05T08:00:34.288Z,2.50
2019-05-05T08:03:03.700Z,2.40
2019-05-05T08:05:33.565Z,2.73
2019-05-05T08:08:01.974Z,2.30
2019-05-05T08:10:30.151Z,2.20
2019-05-05T08:12:58.364Z,2.23
2019-05-05T08:15:27.045Z,2.43
2019-05-05T08:17:59.547Z,2.60
2019-05-05T08:20:38.141Z,2.70
2019-05-05T08:23:08.237Z,2.33
2019-05-05T08:25:40.282Z,2.70
2019-05-05T08:28:15.833Z,2.47
2019-05-05T08:30:57.709Z,2.60
2019-05-05T08:33:25.911Z,2.30
2019-05-05T08:35:54.240Z,2.40
2019-05-05T08:38:24.264Z,2.50
2019-05-05T08:40:54.267Z,2.90
2019-05-05T08:43:24.170Z,2.47
2019-05-05T08:45:52.569Z,2.47
2019-05-05T08:48:20.769Z,2.20
2019-05-05T08:50:48.970Z,2.70
2019-05-05T08:53:17.147Z,2.60
2019-05-05T08:55:45.333Z,2.40
2019-05-05T08:58:14.907Z,2.20
2019-05-05T09:05:43.739Z,2.30
2019-05-05T09:08:13.804Z,2.60
2019-05-05T09:10:41.971Z,2.27
2019-05-05T09:13:10.177Z,2.40
2019-05-05T09:15:38.364Z,2.30
2019-05-05T09:18:07.445Z,2.50
2019-05-05T09:20:35.669Z,2.40
2019-05-05T09:23:04.284Z,2.27
2019-05-05T09:25:39.965Z,2.70
2019-05-05T09:28:09.981Z,2.50
2019-05-05T09:30:40.425Z,2.53
2019-05-05T09:33:08.588Z,2.73
2019-05-05T09:35:36.759Z,2.10
2019-05-05T09:38:04.980Z,2.47
2019-05-05T09:40:34.912Z,2.10
2019-05-05T09:43:03.891Z,2.27
2019-05-05T09:45:33.652Z,2.57
2019-05-05T09:48:01.962Z,2.47
2019-05-05T09:50:30.139Z,2.40
2019-05-05T09:52:58.304Z,2.53
2019-05-05T09:55:26.529Z,2.30
2019-05-05T09:57:54.768Z,2.30
2019-05-05T10:00:24.359Z,2.37
2019-05-05T10:02:54.452Z,2.23
2019-05-05T10:05:23.652Z,2.50
2019-05-05T10:07:52.021Z,2.27
2019-05-05T10:10:20.265Z,2.57
2019-05-05T10:12:52.265Z,2.60
2019-05-05T10:15:19.250Z,2.23
2019-05-05T10:17:48.439Z,2.30
2019-05-05T10:20:16.719Z,2.13
2019-05-05T10:22:44.925Z,2.17
2019-05-05T10:25:31.587Z,2.40
2019-05-05T10:27:59.751Z,2.47
2019-05-05T10:30:27.957Z,2.43
2019-05-05T10:32:56.132Z,2.47
2019-05-05T10:35:24.333Z,2.80
2019-05-05T10:37:54.429Z,2.60
2019-05-05T10:40:33.893Z,3.10
2019-05-05T10:43:04.436Z,2.47
2019-05-05T10:45:32.375Z,2.60
2019-05-05T10:48:00.571Z,2.60
2019-05-05T10:50:28.744Z,2.50
2019-05-05T10:52:56.948Z,2.30
2019-05-05T10:55:25.123Z,1.93
2019-05-05T10:57:54.268Z,2.40
2019-05-05T11:00:44.136Z,2.13
2019-05-05T11:03:14.893Z,2.40
2019-05-05T11:05:44.875Z,2.33
2019-05-05T11:08:13.618Z,2.33
2019-05-05T11:10:42.049Z,2.90
2019-05-05T11:13:10.245Z,2.30
2019-05-05T11:15:38.491Z,2.53
2019-05-05T11:18:06.687Z,2.70
2019-05-05T11:20:34.897Z,2.60
2019-05-05T11:23:04.884Z,2.37
2019-05-05T11:25:33.748Z,2.53
2019-05-05T11:28:03.662Z,2.40
2019-05-05T11:30:33.994Z,2.97
2019-05-05T11:33:23.604Z,2.63
2019-05-05T11:36:04.334Z,2.13
2019-05-05T11:38:33.858Z,2.33
2019-05-05T11:41:02.300Z,2.50
2019-05-05T11:43:30.571Z,2.40
2019-05-05T11:45:58.845Z,1.90
2019-05-05T11:48:27.024Z,2.03
2019-05-05T11:50:55.240Z,2.27
2019-05-05T11:53:25.104Z,2.10
2019-05-05T11:55:55.001Z,2.43
2019-05-05T11:58:24.845Z,2.30
2019-05-05T12:00:54.469Z,2.27
2019-05-05T12:03:22.995Z,2.47
2019-05-05T12:05:51.193Z,3.10
2019-05-05T12:08:19.494Z,2.53
2019-05-05T12:10:54.041Z,2.47
2019-05-05T12:13:23.499Z,3.07
2019-05-05T12:15:53.960Z,2.50
2019-05-05T12:18:23.733Z,3.00
2019-05-05T12:20:54.236Z,2.90
2019-05-05T12:23:22.041Z,2.90
2019-05-05T12:25:54.978Z,2.53
2019-05-05T12:28:34.527Z,2.83
2019-05-05T12:31:14.135Z,2.70
2019-05-05T12:33:44.215Z,2.80
2019-05-05T12:36:12.365Z,2.90
2019-05-05T12:38:40.574Z,3.10
2019-05-05T12:41:08.803Z,2.53
2019-05-05T12:43:37.012Z,2.33
2019-05-05T12:46:24.884Z,2.43
2019-05-05T12:48:54.732Z,2.13
2019-05-05T12:51:23.612Z,2.80
2019-05-05T12:53:53.946Z,2.20
2019-05-05T12:56:23.833Z,2.37
2019-05-05T12:58:54.351Z,2.50
2019-05-05T13:01:24.602Z,2.53
2019-05-05T13:03:54.314Z,2.60
2019-05-05T13:06:23.980Z,2.30
2019-05-05T13:08:53.265Z,2.70
2019-05-05T13:11:23.639Z,2.73
2019-05-05T13:13:54.557Z,2.23
2019-05-05T13:16:24.977Z,2.77
2019-05-05T13:18:53.914Z,2.30
2019-05-05T13:21:34.627Z,2.40
2019-05-05T13:24:20.819Z,2.80
2019-05-05T13:27:11.646Z,2.40
2019-05-05T13:29:40.057Z,2.30
2019-05-05T13:32:08.303Z,2.27
2019-05-05T13:34:36.545Z,2.10
2019-05-05T13:37:04.712Z,2.40
2019-05-05T13:39:34.041Z,2.30
2019-05-05T13:42:04.399Z,2.57
2019-05-05T13:44:49.263Z,2.40
2019-05-05T13:47:17.621Z,2.27
2019-05-05T13:49:45.907Z,2.40
2019-05-05T13:52:14.111Z,2.57
2019-05-05T13:54:43.881Z,2.50
2019-05-05T13:57:14.240Z,2.37
2019-05-05T13:59:44.325Z,2.67
2019-05-05T14:02:13.766Z,2.70
2019-05-05T14:04:43.771Z,2.40
2019-05-05T14:07:12.058Z,2.30
2019-05-05T14:09:40.372Z,2.33
2019-05-05T14:12:08.581Z,2.07
2019-05-05T14:14:36.799Z,2.20
2019-05-05T14:17:04.979Z,2.43
2019-05-05T14:19:34.036Z,2.17
2019-05-05T14:22:04.238Z,2.47
2019-05-05T14:24:36.672Z,2.43
2019-05-05T14:27:04.862Z,2.40
2019-05-05T14:29:35.624Z,2.60
2019-05-05T14:32:04.193Z,2.10
2019-05-05T14:34:34.009Z,2.67
2019-05-05T14:37:20.436Z,2.53
2019-05-05T14:39:48.637Z,2.33
2019-05-05T14:42:16.834Z,2.40
2019-05-05T14:44:45.024Z,2.43
2019-05-05T14:47:13.633Z,2.47
2019-05-05T14:49:41.979Z,2.80
2019-05-05T14:52:10.174Z,2.50
2019-05-05T14:54:38.389Z,2.30
2019-05-05T14:57:06.595Z,2.43
2019-05-05T14:59:37.000Z,2.33
2019-05-05T15:02:04.837Z,2.57
2019-05-05T15:04:34.655Z,2.73
2019-05-05T15:07:07.125Z,3.50
2019-05-05T15:09:36.943Z,2.40
2019-05-05T15:12:14.345Z,2.93
2019-05-05T15:14:43.956Z,2.50
2019-05-05T15:17:14.153Z,2.77
2019-05-05T15:19:43.607Z,2.53
2019-05-05T15:22:14.834Z,2.30
2019-05-05T15:24:44.011Z,2.63
2019-05-05T15:27:11.755Z,2.43
2019-05-05T15:29:39.944Z,2.50
2019-05-05T15:32:08.177Z,2.17
2019-05-05T15:34:36.390Z,2.20
2019-05-05T15:37:04.559Z,2.53
2019-05-05T15:39:33.671Z,2.53
2019-05-05T15:42:01.940Z,2.50
2019-05-05T15:44:30.935Z,2.87
2019-05-05T15:46:59.144Z,2.63
2019-05-05T15:49:27.312Z,2.90
2019-05-05T15:51:55.521Z,2.90
2019-05-05T15:54:24.600Z,2.80
2019-05-05T15:57:04.888Z,2.47
2019-05-05T15:59:23.920Z,3.20
2019-05-05T16:01:52.382Z,2.63
2019-05-05T16:04:20.555Z,2.63
2019-05-05T16:06:48.757Z,2.10
2019-05-05T16:09:16.969Z,2.20
2019-05-05T16:11:46.837Z,2.60
2019-05-05T16:14:16.228Z,2.30
2019-05-05T16:16:51.845Z,2.30
2019-05-05T16:19:33.652Z,2.20
2019-05-05T16:22:03.903Z,2.80
2019-05-05T16:24:36.857Z,2.57
2019-05-05T16:27:18.349Z,2.77
2019-05-05T16:29:35.024Z,3.17
2019-05-05T16:32:05.478Z,2.93
2019-05-05T16:34:33.723Z,2.30
2019-05-05T16:37:03.838Z,2.60
2019-05-05T16:39:33.608Z,2.13
2019-05-05T16:42:01.910Z,2.30
2019-05-05T16:44:31.016Z,2.40
2019-05-05T16:46:59.221Z,2.33
2019-05-05T16:49:27.395Z,2.40
2019-05-05T16:51:57.233Z,2.20
2019-05-05T16:54:27.077Z,2.30
2019-05-05T16:56:55.285Z,2.50
2019-05-05T16:59:23.796Z,2.50
2019-05-05T17:01:53.959Z,2.50
2019-05-05T17:04:23.833Z,2.40
2019-05-05T17:06:51.904Z,2.50
2019-05-05T17:09:20.083Z,2.40
2019-05-05T17:11:49.892Z,2.20
2019-05-05T17:14:19.749Z,2.60
2019-05-05T17:16:49.552Z,2.67
2019-05-05T17:19:19.359Z,2.33
2019-05-05T17:21:53.626Z,2.33
2019-05-05T17:24:23.753Z,2.40
2019-05-05T17:26:51.740Z,2.40
2019-05-05T17:29:19.909Z,2.17
2019-05-05T17:31:48.083Z,2.03
2019-05-05T17:34:16.255Z,2.00
2019-05-05T17:36:45.253Z,2.33
2019-05-05T17:39:13.785Z,2.00
2019-05-05T17:41:44.621Z,2.10
2019-05-05T17:44:20.124Z,2.20
2019-05-05T17:46:53.818Z,2.20
2019-05-05T17:49:27.119Z,2.03
2019-05-05T17:52:06.236Z,2.20
2019-05-05T17:54:38.813Z,1.80
2019-05-05T17:57:07.083Z,2.20
2019-05-05T17:59:35.317Z,2.00
2019-05-05T18:02:04.697Z,2.23
2019-05-05T18:04:33.753Z,1.93
2019-05-05T18:07:14.327Z,2.17
2019-05-05T18:09:54.545Z,2.17
2019-05-05T18:12:24.451Z,2.23
2019-05-05T18:14:54.265Z,2.20
2019-05-05T18:17:24.324Z,2.10
2019-05-05T18:19:53.582Z,2.33
2019-05-05T18:22:21.930Z,2.50
2019-05-05T18:24:50.129Z,2.10
2019-05-05T18:27:18.338Z,2.30
2019-05-05T18:29:46.538Z,2.43
2019-05-05T18:32:14.715Z,2.50
2019-05-05T18:34:42.920Z,2.63
2019-05-05T18:37:11.131Z,2.63
2019-05-05T18:39:39.346Z,2.40
2019-05-05T18:42:13.912Z,2.30
2019-05-05T18:44:49.575Z,2.50
2019-05-05T18:47:18.992Z,2.40
2019-05-05T18:49:47.393Z,2.80
2019-05-05T18:52:15.693Z,3.63
2019-05-05T18:54:43.944Z,3.60
2019-05-05T18:57:12.161Z,3.73
2019-05-05T18:59:41.619Z,3.73
2019-05-05T19:02:17.401Z,3.63
2019-05-05T19:04:53.715Z,3.47
2019-05-05T19:07:35.743Z,3.40
2019-05-05T19:10:05.597Z,3.30
2019-05-05T19:12:34.666Z,3.53
2019-05-05T19:15:04.300Z,4.10
2019-05-05T19:17:34.540Z,3.30
2019-05-05T19:20:05.117Z,3.63
2019-05-05T19:22:33.869Z,3.90
2019-05-05T19:25:15.600Z,3.97
2019-05-05T19:27:44.584Z,3.40
2019-05-05T19:30:13.806Z,3.83
2019-05-05T19:32:43.743Z,3.60
2019-05-05T19:37:39.434Z,3.50
2019-05-05T19:40:08.131Z,3.83
2019-05-05T19:42:36.300Z,3.60
2019-05-05T19:45:07.651Z,4.00
2019-05-05T19:47:35.856Z,4.00
2019-05-05T19:50:07.222Z,4.47
2019-05-05T19:52:35.376Z,4.20
2019-05-05T19:55:04.761Z,4.20
2019-05-05T19:57:35.790Z,5.00
2019-05-05T20:00:04.027Z,4.30
2019-05-05T20:02:34.080Z,4.57
2019-05-05T20:05:04.299Z,4.53
2019-05-05T20:07:32.329Z,4.07
2019-05-05T20:10:00.605Z,4.33
2019-05-05T20:12:28.783Z,4.43
2019-05-05T20:14:59.405Z,4.00
2019-05-05T20:17:29.282Z,4.87
2019-05-05T20:19:57.524Z,6.40
2019-05-05T20:22:25.713Z,4.60
2019-05-05T20:24:53.994Z,4.70
2019-05-05T20:27:23.555Z,4.40
2019-05-05T20:29:51.903Z,4.90
2019-05-05T20:32:21.760Z,5.20
2019-05-05T20:34:54.253Z,4.87
2019-05-05T20:37:26.756Z,5.10
2019-05-05T20:39:55.657Z,5.80
2019-05-05T20:42:23.869Z,5.60
2019-05-05T20:44:54.269Z,4.83
2019-05-05T20:47:23.640Z,5.30
2019-05-05T20:49:53.873Z,5.40
2019-05-05T20:52:23.689Z,4.67
2019-05-05T20:54:53.781Z,5.20
2019-05-05T20:57:22.134Z,4.90
2019-05-05T20:59:50.304Z,4.70
2019-05-05T21:02:18.497Z,4.40
2019-05-05T21:04:46.691Z,4.13
2019-05-05T21:07:14.949Z,4.50
2019-05-05T21:09:44.120Z,4.17
2019-05-05T21:12:13.851Z,4.13
2019-05-05T21:14:44.475Z,4.03
2019-05-05T21:17:13.640Z,4.00
2019-05-05T21:19:41.980Z,3.80
2019-05-05T21:22:28.348Z,3.60
2019-05-05T21:24:57.699Z,3.57
2019-05-05T21:27:25.917Z,3.20
2019-05-05T21:29:54.485Z,4.13
2019-05-05T21:32:25.231Z,4.30
2019-05-05T21:34:53.216Z,4.33
2019-05-05T21:37:21.404Z,4.40
2019-05-05T21:39:49.591Z,4.23
2019-05-05T21:42:17.886Z,4.20
2019-05-05T21:44:46.078Z,3.93
2019-05-05T21:47:14.341Z,4.60
2019-05-05T21:49:43.796Z,4.40
2019-05-05T21:52:14.525Z,4.47
2019-05-05T21:54:53.320Z,4.63
2019-05-05T21:57:34.336Z,4.07
2019-05-05T22:00:04.271Z,4.77
2019-05-05T22:02:31.878Z,4.47
2019-05-05T22:05:00.086Z,5.27
2019-05-05T22:07:28.289Z,4.73
2019-05-05T22:09:56.470Z,4.63
2019-05-05T22:12:24.669Z,5.40
2019-05-05T22:14:54.785Z,4.40
2019-05-05T22:17:23.647Z,4.83
2019-05-05T22:20:09.772Z,5.60
2019-05-05T22:22:39.596Z,5.27
2019-05-05T22:25:07.777Z,5.97
2019-05-05T22:27:35.964Z,4.87
2019-05-05T22:30:10.010Z,4.83
2019-05-05T22:32:35.648Z,4.60
2019-05-05T22:35:05.492Z,4.07
2019-05-05T22:37:34.384Z,4.43
2019-05-05T22:40:02.660Z,4.90
2019-05-05T22:42:30.872Z,4.83
2019-05-05T22:44:59.094Z,4.90
2019-05-05T22:47:27.298Z,4.13
2019-05-05T22:49:56.448Z,5.15
2019-05-05T22:52:25.465Z,4.60
2019-05-05T22:54:53.935Z,4.53
2019-05-05T22:57:22.156Z,4.80
2019-05-05T22:59:50.357Z,4.07
2019-05-05T23:02:20.160Z,4.20
2019-05-05T23:04:57.308Z,4.40
2019-05-05T23:07:27.123Z,4.37
2019-05-05T23:09:55.297Z,4.10
2019-05-05T23:12:24.402Z,3.73
2019-05-05T23:14:54.558Z,3.90
2019-05-05T23:17:34.180Z,4.00
2019-05-05T23:20:10.249Z,4.00
2019-05-05T23:22:46.344Z,4.73
2019-05-05T23:25:19.005Z,3.77
2019-05-05T23:27:47.956Z,4.03
2019-05-05T23:30:17.377Z,4.20
2019-05-05T23:32:46.957Z,3.80
2019-05-05T23:35:17.396Z,4.20
2019-05-05T23:37:45.847Z,4.60
2019-05-05T23:40:15.560Z,4.50
2019-05-05T23:42:43.842Z,4.47
2019-05-05T23:45:13.816Z,4.33
2019-05-05T23:47:41.951Z,4.60
2019-05-05T23:50:10.221Z,3.97
2019-05-05T23:52:38.433Z,3.83
